sensor_id;sensor_type;location;lat;lon;timestamp;P1;durP1;ratioP1;P2;durP2;ratioP2
37485;SDS011;23341;50.296;18.960;2023-09-19T00:04:19;16.67;;;11.30;;
37485;SDS011;23341;50.296;18.960;2023-09-19T00:09:26;14.02;;;10.88;;
37485;SDS011;23341;50.296;18.960;2023-09-19T00:14:31;11.38;;;10.25;;
37485;SDS011;23341;50.296;18.960;2023-09-19T00:19:38;14.60;;;11.50;;
37485;SDS011;23341;50.296;18.960;2023-09-19T00:24:45;12.23;;;10.93;;
37485;SDS011;23341;50.296;18.960;2023-09-19T00:29:51;12.63;;;10.65;;
37485;SDS011;23341;50.296;18.960;2023-09-19T00:34:55;11.27;;;10.23;;
37485;SDS011;23341;50.296;18.960;2023-09-19T00:39:59;16.35;;;10.63;;
37485;SDS011;23341;50.296;18.960;2023-09-19T00:45:09;14.48;;;12.23;;
37485;SDS011;23341;50.296;18.960;2023-09-19T00:50:15;11.32;;;10.40;;
37485;SDS011;23341;50.296;18.960;2023-09-19T00:55:21;11.88;;;10.77;;
37485;SDS011;23341;50.296;18.960;2023-09-19T01:00:29;14.63;;;11.82;;
37485;SDS011;23341;50.296;18.960;2023-09-19T01:05:36;12.43;;;10.23;;
37485;SDS011;23341;50.296;18.960;2023-09-19T01:10:41;18.25;;;11.02;;
37485;SDS011;23341;50.296;18.960;2023-09-19T01:15:58;11.60;;;10.43;;
37485;SDS011;23341;50.296;18.960;2023-09-19T01:21:11;11.73;;;10.63;;
37485;SDS011;23341;50.296;18.960;2023-09-19T01:26:29;16.67;;;11.07;;
37485;SDS011;23341;50.296;18.960;2023-09-19T01:31:48;13.82;;;11.73;;
37485;SDS011;23341;50.296;18.960;2023-09-19T01:36:57;13.95;;;10.77;;
37485;SDS011;23341;50.296;18.960;2023-09-19T01:42:02;12.00;;;10.77;;
37485;SDS011;23341;50.296;18.960;2023-09-19T01:47:28;11.82;;;10.63;;
37485;SDS011;23341;50.296;18.960;2023-09-19T01:52:38;13.00;;;10.73;;
37485;SDS011;23341;50.296;18.960;2023-09-19T01:57:52;14.43;;;11.95;;
37485;SDS011;23341;50.296;18.960;2023-09-19T02:03:06;12.75;;;10.82;;
37485;SDS011;23341;50.296;18.960;2023-09-19T02:08:12;11.77;;;10.68;;
37485;SDS011;23341;50.296;18.960;2023-09-19T02:13:20;11.43;;;10.32;;
37485;SDS011;23341;50.296;18.960;2023-09-19T02:18:28;13.43;;;11.38;;
37485;SDS011;23341;50.296;18.960;2023-09-19T02:23:33;11.85;;;10.75;;
37485;SDS011;23341;50.296;18.960;2023-09-19T02:28:38;12.68;;;11.23;;
37485;SDS011;23341;50.296;18.960;2023-09-19T02:33:45;15.57;;;12.38;;
37485;SDS011;23341;50.296;18.960;2023-09-19T02:38:49;13.55;;;10.55;;
37485;SDS011;23341;50.296;18.960;2023-09-19T02:43:54;11.88;;;10.52;;
37485;SDS011;23341;50.296;18.960;2023-09-19T02:49:00;14.52;;;10.40;;
37485;SDS011;23341;50.296;18.960;2023-09-19T02:54:08;15.90;;;10.93;;
37485;SDS011;23341;50.296;18.960;2023-09-19T02:59:14;12.23;;;10.48;;
37485;SDS011;23341;50.296;18.960;2023-09-19T03:04:21;15.73;;;11.25;;
37485;SDS011;23341;50.296;18.960;2023-09-19T03:09:26;12.02;;;10.68;;
37485;SDS011;23341;50.296;18.960;2023-09-19T03:14:30;14.77;;;11.05;;
37485;SDS011;23341;50.296;18.960;2023-09-19T03:19:39;12.82;;;11.52;;
37485;SDS011;23341;50.296;18.960;2023-09-19T03:24:44;14.95;;;12.73;;
37485;SDS011;23341;50.296;18.960;2023-09-19T03:29:49;12.55;;;11.45;;
37485;SDS011;23341;50.296;18.960;2023-09-19T03:34:55;15.02;;;12.10;;
37485;SDS011;23341;50.296;18.960;2023-09-19T03:40:00;15.45;;;13.55;;
37485;SDS011;23341;50.296;18.960;2023-09-19T03:45:08;17.23;;;15.40;;
37485;SDS011;23341;50.296;18.960;2023-09-19T03:50:22;21.42;;;16.35;;
37485;SDS011;23341;50.296;18.960;2023-09-19T03:55:27;22.05;;;18.50;;
37485;SDS011;23341;50.296;18.960;2023-09-19T04:00:32;22.80;;;20.42;;
37485;SDS011;23341;50.296;18.960;2023-09-19T04:05:42;20.73;;;18.27;;
37485;SDS011;23341;50.296;18.960;2023-09-19T04:10:47;25.65;;;20.10;;
37485;SDS011;23341;50.296;18.960;2023-09-19T04:15:52;26.65;;;21.90;;
37485;SDS011;23341;50.296;18.960;2023-09-19T04:20:58;25.88;;;21.77;;
37485;SDS011;23341;50.296;18.960;2023-09-19T04:26:04;26.50;;;22.20;;
37485;SDS011;23341;50.296;18.960;2023-09-19T04:31:09;26.45;;;23.33;;
37485;SDS011;23341;50.296;18.960;2023-09-19T04:36:15;29.45;;;25.23;;
37485;SDS011;23341;50.296;18.960;2023-09-19T04:41:36;33.17;;;25.08;;
37485;SDS011;23341;50.296;18.960;2023-09-19T04:46:44;32.78;;;24.20;;
37485;SDS011;23341;50.296;18.960;2023-09-19T04:51:50;30.08;;;24.25;;
37485;SDS011;23341;50.296;18.960;2023-09-19T04:56:56;32.70;;;23.83;;
37485;SDS011;23341;50.296;18.960;2023-09-19T05:02:00;29.98;;;25.23;;
37485;SDS011;23341;50.296;18.960;2023-09-19T05:07:05;29.58;;;24.95;;
37485;SDS011;23341;50.296;18.960;2023-09-19T05:12:10;32.35;;;24.50;;
37485;SDS011;23341;50.296;18.960;2023-09-19T05:17:14;28.98;;;24.88;;
37485;SDS011;23341;50.296;18.960;2023-09-19T05:22:21;30.55;;;22.85;;
37485;SDS011;23341;50.296;18.960;2023-09-19T05:27:27;24.73;;;22.08;;
37485;SDS011;23341;50.296;18.960;2023-09-19T05:32:31;28.30;;;22.23;;
37485;SDS011;23341;50.296;18.960;2023-09-19T05:37:37;28.10;;;20.08;;
37485;SDS011;23341;50.296;18.960;2023-09-19T05:42:41;26.50;;;21.45;;
37485;SDS011;23341;50.296;18.960;2023-09-19T05:47:46;29.05;;;20.88;;
37485;SDS011;23341;50.296;18.960;2023-09-19T05:52:55;21.23;;;19.05;;
37485;SDS011;23341;50.296;18.960;2023-09-19T06:03:06;21.00;;;17.35;;
37485;SDS011;23341;50.296;18.960;2023-09-19T06:08:12;19.35;;;16.63;;
37485;SDS011;23341;50.296;18.960;2023-09-19T06:13:16;25.83;;;15.63;;
37485;SDS011;23341;50.296;18.960;2023-09-19T06:18:22;18.23;;;15.40;;
37485;SDS011;23341;50.296;18.960;2023-09-19T06:23:30;26.27;;;17.40;;
37485;SDS011;23341;50.296;18.960;2023-09-19T06:28:36;24.45;;;18.27;;
37485;SDS011;23341;50.296;18.960;2023-09-19T06:33:40;27.58;;;16.88;;
37485;SDS011;23341;50.296;18.960;2023-09-19T06:38:47;21.50;;;16.88;;
37485;SDS011;23341;50.296;18.960;2023-09-19T06:43:53;16.88;;;15.05;;
37485;SDS011;23341;50.296;18.960;2023-09-19T06:48:58;17.00;;;13.07;;
37485;SDS011;23341;50.296;18.960;2023-09-19T06:54:04;17.33;;;13.55;;
37485;SDS011;23341;50.296;18.960;2023-09-19T06:59:08;19.42;;;12.85;;
37485;SDS011;23341;50.296;18.960;2023-09-19T07:04:17;18.20;;;12.17;;
37485;SDS011;23341;50.296;18.960;2023-09-19T07:09:24;20.05;;;10.85;;
37485;SDS011;23341;50.296;18.960;2023-09-19T07:14:29;19.45;;;10.85;;
37485;SDS011;23341;50.296;18.960;2023-09-19T07:19:34;18.02;;;9.02;;
37485;SDS011;23341;50.296;18.960;2023-09-19T07:24:40;10.30;;;7.65;;
37485;SDS011;23341;50.296;18.960;2023-09-19T07:29:45;13.07;;;7.05;;
37485;SDS011;23341;50.296;18.960;2023-09-19T07:34:54;14.32;;;6.57;;
37485;SDS011;23341;50.296;18.960;2023-09-19T07:40:00;11.27;;;5.40;;
37485;SDS011;23341;50.296;18.960;2023-09-19T07:45:06;12.48;;;6.55;;
37485;SDS011;23341;50.296;18.960;2023-09-19T07:50:11;8.07;;;5.68;;
37485;SDS011;23341;50.296;18.960;2023-09-19T07:55:17;12.55;;;4.25;;
37485;SDS011;23341;50.296;18.960;2023-09-19T08:00:26;6.95;;;4.25;;
37485;SDS011;23341;50.296;18.960;2023-09-19T08:05:30;6.57;;;4.63;;
37485;SDS011;23341;50.296;18.960;2023-09-19T08:10:37;5.40;;;4.25;;
37485;SDS011;23341;50.296;18.960;2023-09-19T08:15:44;4.10;;;3.10;;
37485;SDS011;23341;50.296;18.960;2023-09-19T08:20:49;4.00;;;3.70;;
37485;SDS011;23341;50.296;18.960;2023-09-19T08:25:57;6.15;;;3.92;;
37485;SDS011;23341;50.296;18.960;2023-09-19T08:31:05;6.47;;;5.05;;
37485;SDS011;23341;50.296;18.960;2023-09-19T08:36:11;4.50;;;4.10;;
37485;SDS011;23341;50.296;18.960;2023-09-19T08:41:18;5.97;;;4.80;;
37485;SDS011;23341;50.296;18.960;2023-09-19T08:46:23;8.55;;;4.88;;
37485;SDS011;23341;50.296;18.960;2023-09-19T08:51:30;13.65;;;9.50;;
37485;SDS011;23341;50.296;18.960;2023-09-19T08:56:44;14.10;;;7.63;;
37485;SDS011;23341;50.296;18.960;2023-09-19T09:01:51;9.40;;;7.35;;
37485;SDS011;23341;50.296;18.960;2023-09-19T09:06:58;8.80;;;7.28;;
37485;SDS011;23341;50.296;18.960;2023-09-19T09:12:05;10.07;;;8.38;;
37485;SDS011;23341;50.296;18.960;2023-09-19T09:17:09;8.48;;;7.60;;
37485;SDS011;23341;50.296;18.960;2023-09-19T09:22:14;15.80;;;9.45;;
37485;SDS011;23341;50.296;18.960;2023-09-19T09:27:22;9.13;;;7.40;;
37485;SDS011;23341;50.296;18.960;2023-09-19T09:32:28;8.43;;;7.60;;
37485;SDS011;23341;50.296;18.960;2023-09-19T09:37:36;11.68;;;7.70;;
37485;SDS011;23341;50.296;18.960;2023-09-19T09:42:42;8.85;;;7.25;;
37485;SDS011;23341;50.296;18.960;2023-09-19T09:47:49;9.77;;;6.65;;
37485;SDS011;23341;50.296;18.960;2023-09-19T09:52:58;13.13;;;7.35;;
37485;SDS011;23341;50.296;18.960;2023-09-19T09:58:17;9.15;;;6.88;;
37485;SDS011;23341;50.296;18.960;2023-09-19T10:03:32;11.15;;;6.32;;
37485;SDS011;23341;50.296;18.960;2023-09-19T10:08:47;10.32;;;6.25;;
37485;SDS011;23341;50.296;18.960;2023-09-19T10:14:06;12.50;;;6.60;;
37485;SDS011;23341;50.296;18.960;2023-09-19T10:19:14;9.70;;;7.25;;
37485;SDS011;23341;50.296;18.960;2023-09-19T10:24:25;9.07;;;6.07;;
37485;SDS011;23341;50.296;18.960;2023-09-19T10:29:35;9.90;;;6.50;;
37485;SDS011;23341;50.296;18.960;2023-09-19T10:34:42;7.47;;;6.33;;
37485;SDS011;23341;50.296;18.960;2023-09-19T10:39:50;8.75;;;6.35;;
37485;SDS011;23341;50.296;18.960;2023-09-19T10:44:57;6.53;;;5.78;;
37485;SDS011;23341;50.296;18.960;2023-09-19T10:50:09;10.35;;;5.75;;
37485;SDS011;23341;50.296;18.960;2023-09-19T10:55:25;5.03;;;4.22;;
37485;SDS011;23341;50.296;18.960;2023-09-19T11:00:36;4.53;;;3.67;;
37485;SDS011;23341;50.296;18.960;2023-09-19T11:06:04;8.13;;;3.80;;
37485;SDS011;23341;50.296;18.960;2023-09-19T11:22:47;8.05;;;4.35;;
37485;SDS011;23341;50.296;18.960;2023-09-19T11:28:28;6.03;;;5.43;;
37485;SDS011;23341;50.296;18.960;2023-09-19T11:33:33;5.38;;;4.85;;
37485;SDS011;23341;50.296;18.960;2023-09-19T11:38:58;8.50;;;5.25;;
37485;SDS011;23341;50.296;18.960;2023-09-19T11:44:33;6.10;;;5.40;;
37485;SDS011;23341;50.296;18.960;2023-09-19T11:49:40;6.93;;;5.50;;
37485;SDS011;23341;50.296;18.960;2023-09-19T11:54:46;8.38;;;5.82;;
37485;SDS011;23341;50.296;18.960;2023-09-19T11:59:54;8.60;;;7.80;;
37485;SDS011;23341;50.296;18.960;2023-09-19T12:05:00;10.20;;;6.95;;
37485;SDS011;23341;50.296;18.960;2023-09-19T12:10:07;7.43;;;6.72;;
37485;SDS011;23341;50.296;18.960;2023-09-19T12:15:14;6.80;;;6.03;;
37485;SDS011;23341;50.296;18.960;2023-09-19T12:20:18;9.43;;;6.80;;
37485;SDS011;23341;50.296;18.960;2023-09-19T12:25:26;7.85;;;6.40;;
37485;SDS011;23341;50.296;18.960;2023-09-19T12:30:30;8.50;;;6.25;;
37485;SDS011;23341;50.296;18.960;2023-09-19T12:35:38;6.88;;;6.28;;
37485;SDS011;23341;50.296;18.960;2023-09-19T12:40:44;6.25;;;5.68;;
37485;SDS011;23341;50.296;18.960;2023-09-19T12:45:50;5.85;;;5.03;;
37485;SDS011;23341;50.296;18.960;2023-09-19T12:50:59;9.50;;;5.40;;
37485;SDS011;23341;50.296;18.960;2023-09-19T12:56:10;5.03;;;4.57;;
37485;SDS011;23341;50.296;18.960;2023-09-19T13:01:16;10.60;;;5.03;;
37485;SDS011;23341;50.296;18.960;2023-09-19T13:06:34;4.88;;;3.47;;
37485;SDS011;23341;50.296;18.960;2023-09-19T13:11:44;4.43;;;3.72;;
37485;SDS011;23341;50.296;18.960;2023-09-19T13:16:54;4.80;;;4.22;;
37485;SDS011;23341;50.296;18.960;2023-09-19T13:21:59;7.10;;;4.13;;
37485;SDS011;23341;50.296;18.960;2023-09-19T13:27:06;6.03;;;4.78;;
37485;SDS011;23341;50.296;18.960;2023-09-19T13:32:12;4.63;;;3.70;;
37485;SDS011;23341;50.296;18.960;2023-09-19T13:37:17;4.85;;;3.03;;
37485;SDS011;23341;50.296;18.960;2023-09-19T13:42:22;3.03;;;2.72;;
37485;SDS011;23341;50.296;18.960;2023-09-19T13:47:28;5.13;;;2.60;;
37485;SDS011;23341;50.296;18.960;2023-09-19T13:52:32;4.75;;;2.60;;
37485;SDS011;23341;50.296;18.960;2023-09-19T13:57:38;7.97;;;2.70;;
37485;SDS011;23341;50.296;18.960;2023-09-19T14:02:42;5.35;;;3.38;;
37485;SDS011;23341;50.296;18.960;2023-09-19T14:07:49;3.72;;;3.00;;
37485;SDS011;23341;50.296;18.960;2023-09-19T14:12:56;5.13;;;3.33;;
37485;SDS011;23341;50.296;18.960;2023-09-19T14:18:02;7.25;;;3.90;;
37485;SDS011;23341;50.296;18.960;2023-09-19T14:23:07;7.40;;;4.55;;
37485;SDS011;23341;50.296;18.960;2023-09-19T14:28:13;7.03;;;4.68;;
37485;SDS011;23341;50.296;18.960;2023-09-19T14:33:17;5.45;;;4.78;;
37485;SDS011;23341;50.296;18.960;2023-09-19T14:38:21;3.88;;;3.50;;
37485;SDS011;23341;50.296;18.960;2023-09-19T14:43:27;10.18;;;4.47;;
37485;SDS011;23341;50.296;18.960;2023-09-19T14:48:33;5.28;;;4.10;;
37485;SDS011;23341;50.296;18.960;2023-09-19T14:53:37;3.22;;;2.30;;
37485;SDS011;23341;50.296;18.960;2023-09-19T14:58:43;4.28;;;2.17;;
37485;SDS011;23341;50.296;18.960;2023-09-19T15:03:48;4.28;;;2.25;;
37485;SDS011;23341;50.296;18.960;2023-09-19T15:08:53;3.70;;;1.83;;
37485;SDS011;23341;50.296;18.960;2023-09-19T15:13:58;3.85;;;2.10;;
37485;SDS011;23341;50.296;18.960;2023-09-19T15:19:05;2.58;;;1.80;;
37485;SDS011;23341;50.296;18.960;2023-09-19T15:24:10;2.08;;;1.83;;
37485;SDS011;23341;50.296;18.960;2023-09-19T15:29:16;3.45;;;1.58;;
37485;SDS011;23341;50.296;18.960;2023-09-19T15:34:22;1.35;;;1.23;;
37485;SDS011;23341;50.296;18.960;2023-09-19T15:39:29;5.72;;;2.15;;
37485;SDS011;23341;50.296;18.960;2023-09-19T15:44:37;7.30;;;1.80;;
37485;SDS011;23341;50.296;18.960;2023-09-19T15:49:42;4.50;;;2.35;;
37485;SDS011;23341;50.296;18.960;2023-09-19T15:54:48;4.25;;;2.50;;
37485;SDS011;23341;50.296;18.960;2023-09-19T15:59:55;6.43;;;2.92;;
37485;SDS011;23341;50.296;18.960;2023-09-19T16:05:00;6.90;;;4.03;;
37485;SDS011;23341;50.296;18.960;2023-09-19T16:10:06;3.25;;;2.80;;
37485;SDS011;23341;50.296;18.960;2023-09-19T16:15:12;3.97;;;2.45;;
37485;SDS011;23341;50.296;18.960;2023-09-19T16:20:18;7.07;;;3.25;;
37485;SDS011;23341;50.296;18.960;2023-09-19T16:25:22;5.53;;;2.80;;
37485;SDS011;23341;50.296;18.960;2023-09-19T16:30:31;5.15;;;2.70;;
37485;SDS011;23341;50.296;18.960;2023-09-19T16:35:36;8.05;;;3.08;;
37485;SDS011;23341;50.296;18.960;2023-09-19T16:40:50;6.00;;;3.05;;
37485;SDS011;23341;50.296;18.960;2023-09-19T16:45:58;6.38;;;2.95;;
37485;SDS011;23341;50.296;18.960;2023-09-19T16:51:07;6.25;;;3.08;;
37485;SDS011;23341;50.296;18.960;2023-09-19T16:56:13;6.82;;;3.33;;
37485;SDS011;23341;50.296;18.960;2023-09-19T17:01:21;7.43;;;4.15;;
37485;SDS011;23341;50.296;18.960;2023-09-19T17:06:27;8.52;;;4.68;;
37485;SDS011;23341;50.296;18.960;2023-09-19T17:11:31;6.55;;;4.20;;
37485;SDS011;23341;50.296;18.960;2023-09-19T17:16:38;4.78;;;4.38;;
37485;SDS011;23341;50.296;18.960;2023-09-19T17:21:43;7.43;;;4.40;;
37485;SDS011;23341;50.296;18.960;2023-09-19T17:26:47;8.60;;;6.18;;
37485;SDS011;23341;50.296;18.960;2023-09-19T17:31:53;6.85;;;6.20;;
37485;SDS011;23341;50.296;18.960;2023-09-19T17:36:57;9.02;;;5.95;;
37485;SDS011;23341;50.296;18.960;2023-09-19T17:42:02;6.90;;;5.95;;
37485;SDS011;23341;50.296;18.960;2023-09-19T17:47:09;12.07;;;6.50;;
37485;SDS011;23341;50.296;18.960;2023-09-19T17:52:13;7.35;;;6.53;;
37485;SDS011;23341;50.296;18.960;2023-09-19T17:57:18;8.70;;;7.07;;
37485;SDS011;23341;50.296;18.960;2023-09-19T18:02:25;9.30;;;7.50;;
37485;SDS011;23341;50.296;18.960;2023-09-19T18:07:31;7.30;;;6.60;;
37485;SDS011;23341;50.296;18.960;2023-09-19T18:12:35;9.00;;;7.15;;
37485;SDS011;23341;50.296;18.960;2023-09-19T18:17:41;8.52;;;7.10;;
37485;SDS011;23341;50.296;18.960;2023-09-19T18:22:46;7.25;;;6.43;;
37485;SDS011;23341;50.296;18.960;2023-09-19T18:27:51;8.98;;;6.28;;
37485;SDS011;23341;50.296;18.960;2023-09-19T18:32:57;6.75;;;6.05;;
37485;SDS011;23341;50.296;18.960;2023-09-19T18:38:03;8.13;;;5.60;;
37485;SDS011;23341;50.296;18.960;2023-09-19T18:43:08;7.47;;;5.60;;
37485;SDS011;23341;50.296;18.960;2023-09-19T18:48:14;7.05;;;6.43;;
37485;SDS011;23341;50.296;18.960;2023-09-19T18:53:20;13.35;;;8.88;;
37485;SDS011;23341;50.296;18.960;2023-09-19T18:58:24;11.45;;;8.45;;
37485;SDS011;23341;50.296;18.960;2023-09-19T19:03:31;11.20;;;8.07;;
37485;SDS011;23341;50.296;18.960;2023-09-19T19:08:39;8.13;;;7.38;;
37485;SDS011;23341;50.296;18.960;2023-09-19T19:13:44;9.25;;;7.38;;
37485;SDS011;23341;50.296;18.960;2023-09-19T19:18:51;10.02;;;7.63;;
37485;SDS011;23341;50.296;18.960;2023-09-19T19:23:56;7.78;;;6.95;;
37485;SDS011;23341;50.296;18.960;2023-09-19T19:29:01;7.65;;;6.68;;
37485;SDS011;23341;50.296;18.960;2023-09-19T19:34:07;9.10;;;5.97;;
37485;SDS011;23341;50.296;18.960;2023-09-19T19:39:12;9.85;;;6.47;;
37485;SDS011;23341;50.296;18.960;2023-09-19T19:44:17;6.72;;;6.13;;
37485;SDS011;23341;50.296;18.960;2023-09-19T19:49:26;7.25;;;6.65;;
37485;SDS011;23341;50.296;18.960;2023-09-19T19:54:30;9.00;;;6.47;;
37485;SDS011;23341;50.296;18.960;2023-09-19T19:59:35;7.70;;;6.85;;
37485;SDS011;23341;50.296;18.960;2023-09-19T20:04:40;8.27;;;7.15;;
37485;SDS011;23341;50.296;18.960;2023-09-19T20:09:45;10.25;;;8.48;;
37485;SDS011;23341;50.296;18.960;2023-09-19T20:14:49;12.48;;;9.35;;
37485;SDS011;23341;50.296;18.960;2023-09-19T20:19:59;10.13;;;9.13;;
37485;SDS011;23341;50.296;18.960;2023-09-19T20:25:04;11.52;;;10.43;;
37485;SDS011;23341;50.296;18.960;2023-09-19T20:30:09;13.73;;;10.27;;
37485;SDS011;23341;50.296;18.960;2023-09-19T20:35:16;12.00;;;10.70;;
37485;SDS011;23341;50.296;18.960;2023-09-19T20:40:20;14.52;;;11.88;;
37485;SDS011;23341;50.296;18.960;2023-09-19T20:45:25;12.70;;;11.45;;
37485;SDS011;23341;50.296;18.960;2023-09-19T20:50:30;13.30;;;11.85;;
37485;SDS011;23341;50.296;18.960;2023-09-19T20:55:35;13.80;;;12.40;;
37485;SDS011;23341;50.296;18.960;2023-09-19T21:00:40;14.82;;;12.68;;
37485;SDS011;23341;50.296;18.960;2023-09-19T21:05:47;13.13;;;11.80;;
37485;SDS011;23341;50.296;18.960;2023-09-19T21:11:09;11.98;;;10.88;;
37485;SDS011;23341;50.296;18.960;2023-09-19T21:16:14;12.77;;;11.48;;
37485;SDS011;23341;50.296;18.960;2023-09-19T21:21:21;20.10;;;12.98;;
37485;SDS011;23341;50.296;18.960;2023-09-19T21:26:25;12.13;;;10.70;;
37485;SDS011;23341;50.296;18.960;2023-09-19T21:31:30;16.60;;;11.23;;
37485;SDS011;23341;50.296;18.960;2023-09-19T21:36:37;15.48;;;11.35;;
37485;SDS011;23341;50.296;18.960;2023-09-19T21:41:41;12.07;;;10.82;;
37485;SDS011;23341;50.296;18.960;2023-09-19T21:46:46;12.88;;;11.07;;
37485;SDS011;23341;50.296;18.960;2023-09-19T21:51:51;13.52;;;10.90;;
37485;SDS011;23341;50.296;18.960;2023-09-19T21:56:56;17.20;;;12.63;;
37485;SDS011;23341;50.296;18.960;2023-09-19T22:02:00;13.68;;;12.25;;
37485;SDS011;23341;50.296;18.960;2023-09-19T22:07:06;16.50;;;13.75;;
37485;SDS011;23341;50.296;18.960;2023-09-19T22:12:11;13.95;;;12.52;;
37485;SDS011;23341;50.296;18.960;2023-09-19T22:17:16;13.10;;;11.70;;
37485;SDS011;23341;50.296;18.960;2023-09-19T22:22:22;13.25;;;11.85;;
37485;SDS011;23341;50.296;18.960;2023-09-19T22:27:27;14.98;;;12.60;;
37485;SDS011;23341;50.296;18.960;2023-09-19T22:32:32;14.75;;;11.23;;
37485;SDS011;23341;50.296;18.960;2023-09-19T22:37:38;17.52;;;13.20;;
37485;SDS011;23341;50.296;18.960;2023-09-19T22:42:42;19.92;;;13.15;;
37485;SDS011;23341;50.296;18.960;2023-09-19T22:47:50;15.25;;;11.63;;
37485;SDS011;23341;50.296;18.960;2023-09-19T22:52:58;17.02;;;10.68;;
37485;SDS011;23341;50.296;18.960;2023-09-19T22:58:03;16.50;;;11.20;;
37485;SDS011;23341;50.296;18.960;2023-09-19T23:03:08;11.75;;;10.45;;
37485;SDS011;23341;50.296;18.960;2023-09-19T23:08:15;11.88;;;10.27;;
37485;SDS011;23341;50.296;18.960;2023-09-19T23:13:19;11.35;;;10.13;;
37485;SDS011;23341;50.296;18.960;2023-09-19T23:18:30;10.50;;;9.18;;
37485;SDS011;23341;50.296;18.960;2023-09-19T23:23:37;10.75;;;9.35;;
37485;SDS011;23341;50.296;18.960;2023-09-19T23:28:44;11.15;;;9.70;;
37485;SDS011;23341;50.296;18.960;2023-09-19T23:33:50;12.90;;;10.00;;
37485;SDS011;23341;50.296;18.960;2023-09-19T23:38:56;13.07;;;9.95;;
37485;SDS011;23341;50.296;18.960;2023-09-19T23:44:00;11.40;;;8.77;;
37485;SDS011;23341;50.296;18.960;2023-09-19T23:49:05;13.80;;;9.38;;
37485;SDS011;23341;50.296;18.960;2023-09-19T23:54:14;15.80;;;10.13;;
37485;SDS011;23341;50.296;18.960;2023-09-19T23:59:26;14.52;;;10.25;;
